createdAt,value
2018-09-30T00:02:29.791Z,73.73
2018-09-30T00:05:02.603Z,74.28
2018-09-30T00:07:33.994Z,74.91
2018-09-30T00:10:06.439Z,74.58
2018-09-30T00:12:37.386Z,73.85
2018-09-30T00:15:06.462Z,73.95
2018-09-30T00:17:36.434Z,73.91
2018-09-30T00:20:05.364Z,73.92
2018-09-30T00:22:34.335Z,74.36
2018-09-30T00:25:16.222Z,74.08
2018-09-30T00:28:03.856Z,74.25
2018-09-30T00:30:34.805Z,74.31
2018-09-30T00:33:06.810Z,74.24
2018-09-30T00:35:37.813Z,74.24
2018-09-30T00:38:18.330Z,74.67
2018-09-30T00:40:47.319Z,74.59
2018-09-30T00:43:20.434Z,74.57
2018-09-30T00:45:55.265Z,74.63
2018-09-30T00:48:37.094Z,73.99
2018-09-30T00:51:18.297Z,74.30
2018-09-30T00:53:47.194Z,75.47
2018-09-30T00:56:17.187Z,74.74
2018-09-30T00:58:46.211Z,74.59
2018-09-30T01:01:18.634Z,74.83
2018-09-30T01:03:47.841Z,75.32
2018-09-30T01:06:22.555Z,74.69
2018-09-30T01:08:51.930Z,75.09
2018-09-30T01:11:21.057Z,74.17
2018-09-30T01:13:54.901Z,74.93
2018-09-30T01:16:23.802Z,75.31
2018-09-30T01:18:52.753Z,74.45
2018-09-30T01:21:21.807Z,74.12
2018-09-30T01:23:50.761Z,74.24
2018-09-30T01:26:20.662Z,73.83
2018-09-30T01:28:49.591Z,75.24
2018-09-30T01:31:18.499Z,75.33
2018-09-30T01:33:53.086Z,75.25
2018-09-30T01:36:22.035Z,74.08
2018-09-30T01:39:08.247Z,74.15
2018-09-30T01:41:41.978Z,74.39
2018-09-30T01:44:10.971Z,74.43
2018-09-30T01:46:51.313Z,74.21
2018-09-30T01:49:20.205Z,74.18
2018-09-30T01:51:59.146Z,74.14
2018-09-30T01:54:28.014Z,74.43
2018-09-30T01:56:57.907Z,74.20
2018-09-30T01:59:34.518Z,75.07
2018-09-30T02:02:03.506Z,74.39
2018-09-30T02:04:44.571Z,74.41
2018-09-30T02:07:32.198Z,74.86
2018-09-30T02:10:01.084Z,74.68
2018-09-30T02:12:29.982Z,74.68
2018-09-30T02:15:01.123Z,75.38
2018-09-30T02:17:31.121Z,74.16
2018-09-30T02:20:00.035Z,74.75
2018-09-30T02:22:38.892Z,75.27
2018-09-30T02:25:07.850Z,74.52
2018-09-30T02:27:53.727Z,75.58
2018-09-30T02:30:40.518Z,75.52
2018-09-30T02:33:22.229Z,75.53
2018-09-30T02:35:51.139Z,75.04
2018-09-30T02:38:20.033Z,74.83
2018-09-30T02:40:56.019Z,73.89
2018-09-30T02:43:31.749Z,75.41
2018-09-30T02:46:02.664Z,75.24
2018-09-30T02:48:31.534Z,75.43
2018-09-30T02:51:00.414Z,74.87
2018-09-30T02:53:35.881Z,75.67
2018-09-30T02:56:10.481Z,74.81
2018-09-30T02:58:55.791Z,74.35
2018-09-30T03:01:30.625Z,75.05
2018-09-30T03:03:59.838Z,74.38
2018-09-30T03:06:37.981Z,74.89
2018-09-30T03:09:11.953Z,74.21
2018-09-30T03:11:41.221Z,74.68
2018-09-30T03:14:12.088Z,74.67
2018-09-30T03:16:42.597Z,73.91
2018-09-30T03:19:11.534Z,74.81
2018-09-30T03:21:40.419Z,74.14
2018-09-30T03:24:13.377Z,75.04
2018-09-30T03:26:52.636Z,74.26
2018-09-30T03:29:26.930Z,74.83
2018-09-30T03:31:55.824Z,75.29
2018-09-30T03:34:36.592Z,75.67
2018-09-30T03:37:05.528Z,75.03
2018-09-30T03:39:45.850Z,74.84
2018-09-30T03:42:14.726Z,75.98
2018-09-30T03:44:43.706Z,75.08
2018-09-30T03:47:12.626Z,75.31
2018-09-30T03:50:00.934Z,75.68
2018-09-30T03:52:29.894Z,75.46
2018-09-30T03:55:03.465Z,75.46
2018-09-30T03:57:32.363Z,75.10
2018-09-30T04:00:01.277Z,75.05
2018-09-30T04:02:35.256Z,74.47
2018-09-30T04:05:07.517Z,74.47
2018-09-30T04:07:52.897Z,74.61
2018-09-30T04:10:21.770Z,74.71
2018-09-30T04:12:52.730Z,75.34
2018-09-30T04:15:26.763Z,74.89
2018-09-30T04:18:08.723Z,74.46
2018-09-30T04:20:49.911Z,75.10
2018-09-30T04:23:19.830Z,75.18
2018-09-30T04:26:01.071Z,75.73
2018-09-30T04:28:37.496Z,75.14
2018-09-30T04:31:06.596Z,75.32
2018-09-30T04:33:36.474Z,75.50
2018-09-30T04:39:22.296Z,76.27
2018-09-30T04:41:52.492Z,75.37
2018-09-30T04:44:24.886Z,76.03
2018-09-30T04:46:53.884Z,76.19
2018-09-30T04:49:22.889Z,75.46
2018-09-30T04:51:51.867Z,75.90
2018-09-30T04:54:43.449Z,75.38
2018-09-30T04:57:18.681Z,74.86
2018-09-30T04:59:50.835Z,75.83
2018-09-30T05:02:26.154Z,75.60
2018-09-30T05:04:55.024Z,75.87
2018-09-30T05:07:23.934Z,75.81
2018-09-30T05:09:52.911Z,75.09
2018-09-30T05:12:21.799Z,76.41
2018-09-30T05:14:52.745Z,75.13
2018-09-30T05:17:23.677Z,75.64
2018-09-30T05:19:55.136Z,76.06
2018-09-30T05:22:24.156Z,75.17
2018-09-30T05:24:54.200Z,76.26
2018-09-30T05:33:15.496Z,75.98
2018-09-30T05:36:04.317Z,75.54
2018-09-30T05:38:34.266Z,75.78
2018-09-30T05:41:03.165Z,76.70
2018-09-30T05:43:32.160Z,76.70
2018-09-30T05:46:04.641Z,75.70
2018-09-30T05:48:44.009Z,76.80
2018-09-30T05:51:23.745Z,75.38
2018-09-30T05:53:58.162Z,76.89
2018-09-30T05:56:29.081Z,76.33
2018-09-30T05:58:59.991Z,75.77
2018-09-30T06:01:29.069Z,75.75
2018-09-30T06:03:58.040Z,76.74
2018-09-30T06:06:32.010Z,75.91
2018-09-30T06:09:06.087Z,75.76
2018-09-30T06:11:37.066Z,76.40
2018-09-30T06:14:06.174Z,75.87
2018-09-30T06:19:40.206Z,76.31
2018-09-30T06:22:16.388Z,76.23
2018-09-30T06:24:45.387Z,76.06
2018-09-30T06:27:16.400Z,75.62
2018-09-30T06:29:49.227Z,75.73
2018-09-30T06:32:22.174Z,75.72
2018-09-30T06:34:51.186Z,74.99
2018-09-30T06:37:21.495Z,75.73
2018-09-30T06:39:53.974Z,75.05
2018-09-30T06:42:32.479Z,75.55
2018-09-30T06:45:07.481Z,75.01
2018-09-30T06:47:44.146Z,75.37
2018-09-30T06:50:17.754Z,74.09
2018-09-30T06:52:47.901Z,74.65
2018-09-30T06:55:17.837Z,74.40
2018-09-30T06:57:46.819Z,75.12
2018-09-30T07:00:16.841Z,73.97
2018-09-30T07:02:49.409Z,73.96
2018-09-30T07:05:36.196Z,74.35
2018-09-30T07:08:07.122Z,74.19
2018-09-30T07:10:36.010Z,73.72
2018-09-30T07:13:09.986Z,73.12
2018-09-30T07:15:45.559Z,73.30
2018-09-30T07:18:18.713Z,73.09
2018-09-30T07:20:49.683Z,72.76
2018-09-30T07:23:34.882Z,73.87
2018-09-30T07:26:05.854Z,72.96
2018-09-30T07:28:34.832Z,72.45
2018-09-30T07:31:04.728Z,73.01
2018-09-30T07:33:34.698Z,72.13
2018-09-30T07:36:06.703Z,72.28
2018-09-30T07:38:35.621Z,72.58
2018-09-30T07:41:04.612Z,72.70
2018-09-30T07:43:39.571Z,72.48
2018-09-30T07:46:08.813Z,71.86
2018-09-30T07:48:37.783Z,71.55
2018-09-30T07:51:22.762Z,71.25
2018-09-30T07:54:02.171Z,70.71
2018-09-30T07:56:32.324Z,70.39
2018-09-30T07:59:05.988Z,69.64
2018-09-30T08:01:38.869Z,69.42
2018-09-30T08:04:08.003Z,69.25
2018-09-30T08:06:41.903Z,68.82
2018-09-30T08:09:11.065Z,68.90
2018-09-30T08:11:46.429Z,68.07
2018-09-30T08:14:31.764Z,68.60
2018-09-30T08:17:07.083Z,68.64
2018-09-30T08:19:48.356Z,67.38
2018-09-30T08:22:31.199Z,67.06
2018-09-30T08:25:02.169Z,66.25
2018-09-30T08:27:34.523Z,66.08
2018-09-30T08:30:10.182Z,66.19
2018-09-30T08:32:43.194Z,66.12
2018-09-30T08:35:12.153Z,65.91
2018-09-30T08:37:47.390Z,65.97
2018-09-30T08:40:32.523Z,64.78
2018-09-30T08:43:04.657Z,65.04
2018-09-30T08:45:33.826Z,64.31
2018-09-30T08:48:03.699Z,64.58
2018-09-30T08:50:38.249Z,64.84
2018-09-30T08:53:07.322Z,64.98
2018-09-30T08:55:46.647Z,65.21
2018-09-30T08:58:19.059Z,64.81
2018-09-30T09:00:49.729Z,64.56
2018-09-30T09:03:20.791Z,64.91
2018-09-30T09:05:49.934Z,63.88
2018-09-30T09:08:26.741Z,64.73
2018-09-30T09:11:07.657Z,64.34
2018-09-30T09:13:40.957Z,65.36
2018-09-30T09:16:12.139Z,64.58
2018-09-30T09:18:47.511Z,72.15
2018-09-30T09:21:16.510Z,64.82
2018-09-30T09:23:45.433Z,62.63
2018-09-30T09:26:14.325Z,62.83
2018-09-30T09:28:43.266Z,62.75
2018-09-30T09:31:14.241Z,62.78
2018-09-30T09:34:01.620Z,62.20
2018-09-30T09:36:33.732Z,62.02
2018-09-30T09:39:06.115Z,61.45
2018-09-30T09:41:35.171Z,61.12
2018-09-30T09:44:04.268Z,60.72
2018-09-30T09:46:33.316Z,60.88
2018-09-30T09:49:02.625Z,61.37
2018-09-30T09:51:31.621Z,60.45
2018-09-30T09:54:00.495Z,60.39
2018-09-30T09:56:35.726Z,59.90
2018-09-30T09:59:04.739Z,59.26
2018-09-30T10:01:33.589Z,58.49
2018-09-30T10:04:10.848Z,58.33
2018-09-30T10:06:39.770Z,58.42
2018-09-30T10:09:08.709Z,58.63
2018-09-30T10:11:37.625Z,58.28
2018-09-30T10:14:06.620Z,58.18
2018-09-30T10:16:40.472Z,57.55
2018-09-30T10:19:09.422Z,57.26
2018-09-30T10:21:38.538Z,56.87
2018-09-30T10:24:12.431Z,57.41
2018-09-30T10:26:46.331Z,56.92
2018-09-30T10:29:15.403Z,56.63
2018-09-30T10:31:44.957Z,56.16
2018-09-30T10:34:14.407Z,56.09
2018-09-30T10:36:43.323Z,55.16
2018-09-30T10:39:12.424Z,53.73
2018-09-30T10:41:41.469Z,53.10
2018-09-30T10:44:10.481Z,53.00
2018-09-30T10:46:39.424Z,52.68
2018-09-30T10:49:09.053Z,52.13
2018-09-30T10:51:42.437Z,53.43
2018-09-30T10:54:13.582Z,53.36
2018-09-30T10:56:42.708Z,53.07
2018-09-30T10:59:11.580Z,52.61
2018-09-30T11:01:58.617Z,52.71
2018-09-30T11:04:27.518Z,51.08
2018-09-30T11:06:56.406Z,50.64
2018-09-30T11:09:25.422Z,50.71
2018-09-30T11:11:58.346Z,50.22
2018-09-30T11:14:34.648Z,50.25
2018-09-30T11:17:03.613Z,49.67
2018-09-30T11:19:32.528Z,49.87
2018-09-30T11:22:01.517Z,49.72
2018-09-30T11:24:36.052Z,49.12
2018-09-30T11:27:06.248Z,48.89
2018-09-30T11:29:57.881Z,48.41
2018-09-30T11:32:44.539Z,48.46
2018-09-30T11:35:17.780Z,48.89
2018-09-30T11:37:58.014Z,48.69
2018-09-30T11:40:27.474Z,48.01
2018-09-30T11:43:01.106Z,48.30
2018-09-30T11:45:31.119Z,49.00
2018-09-30T11:48:16.029Z,48.40
2018-09-30T11:50:44.944Z,47.22
2018-09-30T11:53:29.863Z,47.62
2018-09-30T11:56:04.331Z,46.64
2018-09-30T11:58:44.338Z,45.68
2018-09-30T12:01:27.461Z,45.22
2018-09-30T12:03:56.358Z,44.85
2018-09-30T12:06:25.262Z,45.38
2018-09-30T12:08:54.490Z,45.10
2018-09-30T12:11:23.396Z,45.32
2018-09-30T12:13:52.276Z,45.02
2018-09-30T12:16:34.636Z,44.99
2018-09-30T12:19:03.561Z,43.88
2018-09-30T12:21:32.460Z,44.43
2018-09-30T12:24:01.382Z,44.89
2018-09-30T12:26:30.369Z,45.23
2018-09-30T12:29:17.107Z,46.22
2018-09-30T12:31:49.318Z,45.64
2018-09-30T12:34:18.239Z,44.81
2018-09-30T12:36:47.170Z,45.47
2018-09-30T12:39:16.443Z,46.31
2018-09-30T12:41:52.852Z,44.86
2018-09-30T12:44:21.753Z,43.70
2018-09-30T12:49:44.199Z,44.42
2018-09-30T12:52:17.782Z,43.81
2018-09-30T12:54:56.990Z,43.01
2018-09-30T12:57:26.980Z,43.21
2018-09-30T13:00:14.162Z,42.81
2018-09-30T13:02:49.664Z,43.17
2018-09-30T13:05:30.924Z,42.42
2018-09-30T13:07:59.957Z,41.88
2018-09-30T13:10:28.913Z,41.54
2018-09-30T13:12:59.924Z,42.07
2018-09-30T13:15:29.657Z,43.24
2018-09-30T13:17:59.634Z,42.56
2018-09-30T13:20:29.702Z,42.40
2018-09-30T13:23:01.975Z,41.91
2018-09-30T13:25:32.973Z,41.79
2018-09-30T13:28:01.940Z,41.91
2018-09-30T13:30:51.557Z,42.04
2018-09-30T13:33:20.539Z,42.76
2018-09-30T13:35:49.505Z,42.20
2018-09-30T13:38:18.443Z,41.86
2018-09-30T13:40:48.560Z,41.90
2018-09-30T13:43:22.003Z,41.39
2018-09-30T13:46:03.924Z,41.56
2018-09-30T13:48:34.794Z,42.11
2018-09-30T13:51:06.031Z,42.37
2018-09-30T13:53:41.093Z,41.94
2018-09-30T13:56:32.574Z,41.98
2018-09-30T13:59:22.348Z,40.97
2018-09-30T14:01:52.348Z,41.63
2018-09-30T14:04:25.275Z,41.34
2018-09-30T14:06:57.406Z,41.75
2018-09-30T14:09:26.355Z,41.57
2018-09-30T14:11:58.845Z,41.62
2018-09-30T14:14:45.608Z,40.97
2018-09-30T14:17:15.564Z,41.28
2018-09-30T14:19:52.449Z,41.54
2018-09-30T14:22:23.641Z,41.86
2018-09-30T14:24:57.738Z,41.11
2018-09-30T14:27:40.850Z,41.40
2018-09-30T14:30:09.805Z,41.49
2018-09-30T14:32:39.740Z,41.74
2018-09-30T14:35:11.798Z,42.85
2018-09-30T14:37:41.791Z,42.93
2018-09-30T14:40:11.745Z,43.03
2018-09-30T14:42:41.824Z,43.01
2018-09-30T14:45:11.844Z,42.96
2018-09-30T14:47:41.839Z,42.68
2018-09-30T14:50:11.890Z,42.65
2018-09-30T14:52:46.820Z,42.01
2018-09-30T14:55:15.818Z,41.85
2018-09-30T14:57:45.829Z,42.38
2018-09-30T15:00:14.847Z,42.41
2018-09-30T15:02:49.611Z,42.33
2018-09-30T15:05:18.540Z,41.94
2018-09-30T15:07:47.517Z,41.47
2018-09-30T15:10:16.546Z,41.52
2018-09-30T15:12:47.057Z,40.91
2018-09-30T15:15:21.888Z,41.18
2018-09-30T15:17:50.996Z,43.04
2018-09-30T15:20:24.246Z,42.32
2018-09-30T15:22:53.137Z,41.91
2018-09-30T15:25:32.836Z,42.05
2018-09-30T15:28:03.768Z,42.53
2018-09-30T15:30:39.726Z,42.76
2018-09-30T15:33:10.756Z,42.79
2018-09-30T15:35:40.644Z,43.11
2018-09-30T15:38:14.317Z,42.75
2018-09-30T15:40:44.318Z,43.88
2018-09-30T15:43:14.478Z,42.86
2018-09-30T15:45:47.093Z,43.15
2018-09-30T15:48:19.799Z,43.09
2018-09-30T15:50:52.742Z,42.93
2018-09-30T15:53:21.919Z,43.02
2018-09-30T15:55:57.088Z,43.67
2018-09-30T15:58:27.020Z,43.44
2018-09-30T16:00:56.073Z,42.72
2018-09-30T16:03:25.494Z,42.63
2018-09-30T16:06:07.717Z,42.37
2018-09-30T16:08:38.483Z,43.00
2018-09-30T16:11:07.964Z,42.83
2018-09-30T16:13:38.949Z,43.02
2018-09-30T16:16:08.126Z,43.34
2018-09-30T16:18:41.064Z,43.50
2018-09-30T16:21:14.147Z,43.54
2018-09-30T16:23:43.057Z,43.68
2018-09-30T16:26:13.980Z,44.38
2018-09-30T16:28:43.011Z,44.41
2018-09-30T16:31:11.949Z,44.87
2018-09-30T16:33:48.890Z,44.85
2018-09-30T16:36:18.972Z,45.13
2018-09-30T16:41:43.489Z,45.14
2018-09-30T16:44:14.576Z,45.60
2018-09-30T16:46:47.250Z,45.92
2018-09-30T16:49:16.370Z,45.29
2018-09-30T16:51:49.620Z,45.54
2018-09-30T16:54:18.564Z,45.83
2018-09-30T16:56:48.820Z,46.21
2018-09-30T16:59:28.341Z,46.29
2018-09-30T17:01:59.715Z,46.08
2018-09-30T17:04:32.372Z,46.52
2018-09-30T17:07:11.410Z,47.23
2018-09-30T17:09:42.004Z,47.43
2018-09-30T17:12:12.540Z,47.34
2018-09-30T17:14:43.004Z,48.38
2018-09-30T17:17:15.703Z,47.59
2018-09-30T17:19:48.861Z,48.04
2018-09-30T17:22:25.272Z,49.04
2018-09-30T17:24:54.238Z,49.21
2018-09-30T17:27:25.338Z,50.32
2018-09-30T17:29:58.280Z,50.33
2018-09-30T17:32:31.229Z,50.68
2018-09-30T17:35:00.267Z,51.08
2018-09-30T17:37:31.199Z,51.39
2018-09-30T17:40:00.116Z,51.84
2018-09-30T17:42:30.044Z,51.97
2018-09-30T17:44:59.016Z,51.71
2018-09-30T17:47:31.248Z,52.07
2018-09-30T17:50:04.146Z,52.67
2018-09-30T17:52:33.033Z,53.69
2018-09-30T17:55:01.979Z,54.15
2018-09-30T17:57:31.005Z,54.79
2018-09-30T18:00:05.312Z,55.36
2018-09-30T18:02:35.269Z,56.37
2018-09-30T18:05:05.424Z,56.32
2018-09-30T18:07:34.364Z,57.13
2018-09-30T18:10:03.270Z,57.92
2018-09-30T18:12:35.894Z,57.74
2018-09-30T18:15:13.231Z,57.97
2018-09-30T18:17:42.282Z,58.58
2018-09-30T18:20:14.494Z,58.96
2018-09-30T18:22:43.846Z,59.56
2018-09-30T18:25:13.109Z,58.79
2018-09-30T18:27:42.495Z,59.68
2018-09-30T18:30:12.153Z,60.41
2018-09-30T18:32:43.276Z,60.41
2018-09-30T18:35:12.186Z,60.30
2018-09-30T18:37:44.949Z,60.72
2018-09-30T18:40:13.928Z,60.22
2018-09-30T18:42:43.742Z,60.00
2018-09-30T18:45:17.997Z,60.33
2018-09-30T18:47:47.909Z,60.40
2018-09-30T18:50:16.864Z,60.34
2018-09-30T18:52:48.992Z,60.93
2018-09-30T18:55:18.924Z,61.75
2018-09-30T18:57:47.877Z,61.51
2018-09-30T19:00:16.761Z,61.45
2018-09-30T19:02:58.153Z,61.75
2018-09-30T19:05:28.198Z,62.19
2018-09-30T19:07:57.438Z,62.08
2018-09-30T19:10:26.455Z,62.10
2018-09-30T19:13:06.197Z,62.03
2018-09-30T19:15:39.143Z,62.35
2018-09-30T19:18:10.135Z,62.32
2018-09-30T19:20:39.271Z,62.71
2018-09-30T19:23:08.834Z,62.92
2018-09-30T19:25:40.001Z,62.75
2018-09-30T19:28:09.225Z,62.80
2018-09-30T19:30:38.293Z,63.63
2018-09-30T19:33:07.398Z,62.76
2018-09-30T19:35:42.168Z,63.62
2018-09-30T19:38:16.645Z,63.49
2018-09-30T19:40:46.694Z,62.70
2018-09-30T19:43:15.853Z,62.56
2018-09-30T19:45:46.066Z,61.95
2018-09-30T19:48:15.121Z,62.86
2018-09-30T19:50:44.132Z,62.55
2018-09-30T19:53:13.829Z,63.28
2018-09-30T19:55:45.826Z,63.53
2018-09-30T19:58:15.754Z,63.63
2018-09-30T20:01:06.851Z,63.53
2018-09-30T20:03:46.121Z,64.24
2018-09-30T20:06:15.051Z,64.91
2018-09-30T20:08:45.010Z,64.98
2018-09-30T20:11:16.005Z,65.59
2018-09-30T20:13:44.969Z,65.96
2018-09-30T20:16:15.880Z,66.40
2018-09-30T20:18:47.004Z,66.16
2018-09-30T20:21:16.240Z,66.87
2018-09-30T20:23:45.189Z,66.38
2018-09-30T20:26:14.091Z,66.55
2018-09-30T20:28:43.250Z,66.33
2018-09-30T20:34:31.490Z,67.01
2018-09-30T20:37:03.792Z,66.69
2018-09-30T20:39:39.927Z,66.98
2018-09-30T20:42:13.683Z,66.50
2018-09-30T20:44:44.830Z,67.60
2018-09-30T20:47:14.894Z,66.85
2018-09-30T20:49:48.411Z,66.71
2018-09-30T20:52:29.723Z,66.72
2018-09-30T20:55:09.866Z,66.91
2018-09-30T20:57:42.868Z,66.91
2018-09-30T21:00:30.907Z,67.33
2018-09-30T21:03:10.273Z,67.57
2018-09-30T21:05:50.267Z,67.05
2018-09-30T21:08:21.662Z,67.01
2018-09-30T21:10:54.814Z,66.92
2018-09-30T21:13:23.732Z,66.61
2018-09-30T21:15:53.689Z,67.30
2018-09-30T21:18:26.041Z,66.60
2018-09-30T21:21:04.994Z,66.67
2018-09-30T21:23:37.292Z,66.78
2018-09-30T21:26:06.359Z,67.16
2018-09-30T21:28:39.962Z,66.72
2018-09-30T21:31:27.949Z,67.08
2018-09-30T21:34:00.738Z,66.80
2018-09-30T21:36:30.767Z,67.12
2018-09-30T21:39:00.723Z,67.51
2018-09-30T21:41:43.694Z,67.34
2018-09-30T21:44:16.520Z,67.15
2018-09-30T21:46:45.512Z,67.05
2018-09-30T21:49:24.980Z,67.30
2018-09-30T21:51:53.837Z,67.21
2018-09-30T21:54:28.337Z,67.36
2018-09-30T21:57:03.209Z,68.36
2018-09-30T21:59:38.224Z,68.42
2018-09-30T22:02:21.063Z,68.45
2018-09-30T22:04:59.585Z,68.40
2018-09-30T22:07:34.210Z,68.09
2018-09-30T22:10:08.269Z,68.64
2018-09-30T22:12:44.577Z,68.76
2018-09-30T22:15:13.594Z,68.56
2018-09-30T22:17:42.614Z,69.07
2018-09-30T22:20:12.568Z,68.85
2018-09-30T22:22:55.444Z,68.91
2018-09-30T22:25:24.474Z,69.40
2018-09-30T22:27:53.394Z,69.65
2018-09-30T22:30:22.266Z,69.86
2018-09-30T22:32:51.180Z,69.30
2018-09-30T22:35:43.659Z,69.45
2018-09-30T22:38:12.519Z,69.79
2018-09-30T22:40:46.232Z,70.72
2018-09-30T22:43:15.195Z,69.92
2018-09-30T22:48:44.610Z,70.17
2018-09-30T22:51:19.184Z,70.90
2018-09-30T22:53:49.143Z,71.56
2018-09-30T22:56:23.899Z,70.86
2018-09-30T22:58:52.789Z,71.18
2018-09-30T23:01:21.678Z,70.87
2018-09-30T23:04:01.693Z,71.24
2018-09-30T23:06:38.457Z,71.26
2018-09-30T23:09:07.901Z,71.09
2018-09-30T23:11:36.883Z,71.88
2018-09-30T23:14:07.139Z,71.68
2018-09-30T23:16:36.074Z,72.12
2018-09-30T23:19:04.971Z,71.26
2018-09-30T23:21:33.890Z,71.58
2018-09-30T23:24:02.805Z,71.93
2018-09-30T23:26:31.689Z,72.63
2018-09-30T23:29:00.570Z,72.49
2018-09-30T23:31:29.489Z,72.82
2018-09-30T23:33:58.421Z,72.54
2018-09-30T23:36:30.915Z,72.03
2018-09-30T23:39:02.990Z,72.16
2018-09-30T23:41:32.100Z,72.19
2018-09-30T23:44:00.998Z,71.87
2018-09-30T23:46:29.878Z,71.87
2018-09-30T23:52:17.229Z,72.58
2018-09-30T23:54:52.463Z,72.68
2018-09-30T23:57:25.370Z,72.19
2018-09-30T23:59:54.359Z,72.35
